createdAt,value
2019-02-20T00:00:51.896Z,10.38
2019-02-20T00:03:18.771Z,8.95
2019-02-20T00:05:45.846Z,13.98
2019-02-20T00:08:12.810Z,13.30
2019-02-20T00:10:39.773Z,11.28
2019-02-20T00:13:06.847Z,10.05
2019-02-20T00:15:33.709Z,8.43
2019-02-20T00:18:00.461Z,9.05
2019-02-20T00:20:27.332Z,8.50
2019-02-20T00:22:54.411Z,9.88
2019-02-20T00:25:21.577Z,13.38
2019-02-20T00:27:48.282Z,12.88
2019-02-20T00:30:14.990Z,11.43
2019-02-20T00:32:41.961Z,11.78
2019-02-20T00:35:08.739Z,11.70
2019-02-20T00:37:35.847Z,9.60
2019-02-20T00:40:02.655Z,10.13
2019-02-20T00:42:29.589Z,11.18
2019-02-20T00:44:56.293Z,9.43
2019-02-20T00:47:23.050Z,9.20
2019-02-20T00:49:49.715Z,9.38
2019-02-20T00:52:16.931Z,9.78
2019-02-20T00:54:43.646Z,9.70
2019-02-20T00:57:10.788Z,8.58
2019-02-20T00:59:37.571Z,9.40
2019-02-20T01:02:05.880Z,8.70
2019-02-20T01:04:32.549Z,9.60
2019-02-20T01:06:59.501Z,11.15
2019-02-20T01:09:26.175Z,11.45
2019-02-20T01:11:53.392Z,11.25
2019-02-20T01:14:20.344Z,9.65
2019-02-20T01:16:48.286Z,10.08
2019-02-20T01:19:14.940Z,10.18
2019-02-20T01:21:41.516Z,9.88
2019-02-20T01:24:09.489Z,10.23
2019-02-20T01:26:39.227Z,9.58
2019-02-20T01:29:06.091Z,10.78
2019-02-20T01:31:32.655Z,10.45
2019-02-20T01:33:59.726Z,10.68
2019-02-20T01:36:26.688Z,8.80
2019-02-20T01:38:53.650Z,10.23
2019-02-20T01:41:20.431Z,9.35
2019-02-20T01:43:47.277Z,8.60
2019-02-20T01:46:13.942Z,10.00
2019-02-20T01:48:41.010Z,10.00
2019-02-20T01:51:07.774Z,11.05
2019-02-20T01:53:34.687Z,10.23
2019-02-20T01:56:01.389Z,10.70
2019-02-20T01:58:28.530Z,10.65
2019-02-20T02:00:55.158Z,11.33
2019-02-20T02:03:21.842Z,14.30
2019-02-20T02:05:48.520Z,12.03
2019-02-20T02:08:15.338Z,10.10
2019-02-20T02:10:41.875Z,11.63
2019-02-20T02:13:08.935Z,58.63
2019-02-20T02:15:35.476Z,33.92
2019-02-20T02:18:02.378Z,22.13
2019-02-20T02:20:29.011Z,17.23
2019-02-20T02:22:55.670Z,15.03
2019-02-20T02:25:22.354Z,17.07
2019-02-20T02:27:48.954Z,18.23
2019-02-20T02:30:15.961Z,17.23
2019-02-20T02:32:42.421Z,17.65
2019-02-20T02:35:09.090Z,15.70
2019-02-20T02:37:35.737Z,14.10
2019-02-20T02:40:02.457Z,14.10
2019-02-20T02:42:29.089Z,14.40
2019-02-20T02:44:55.738Z,12.85
2019-02-20T02:47:22.348Z,13.72
2019-02-20T02:49:48.867Z,13.72
2019-02-20T02:52:15.359Z,11.53
2019-02-20T02:54:42.269Z,12.55
2019-02-20T02:57:08.774Z,10.85
2019-02-20T02:59:35.486Z,13.35
2019-02-20T03:02:02.020Z,12.07
2019-02-20T03:04:28.704Z,13.15
2019-02-20T03:06:55.319Z,13.68
2019-02-20T03:09:21.956Z,17.37
2019-02-20T03:11:48.427Z,17.87
2019-02-20T03:14:14.978Z,16.42
2019-02-20T03:16:41.412Z,16.80
2019-02-20T03:19:07.943Z,17.40
2019-02-20T03:21:34.444Z,18.50
2019-02-20T03:24:01.053Z,15.60
2019-02-20T03:26:27.631Z,15.25
2019-02-20T03:28:54.310Z,15.68
2019-02-20T03:31:20.807Z,16.10
2019-02-20T03:33:47.415Z,18.42
2019-02-20T03:36:13.913Z,16.45
2019-02-20T03:38:40.514Z,16.40
2019-02-20T03:41:07.017Z,18.00
2019-02-20T03:43:33.636Z,16.27
2019-02-20T03:46:00.232Z,16.23
2019-02-20T03:48:26.841Z,15.25
2019-02-20T03:50:53.315Z,14.53
2019-02-20T03:53:19.837Z,13.55
2019-02-20T03:55:46.347Z,16.10
2019-02-20T03:58:12.849Z,13.80
2019-02-20T04:00:39.354Z,14.45
2019-02-20T04:03:05.952Z,12.18
2019-02-20T04:05:32.511Z,11.20
2019-02-20T04:07:59.034Z,12.03
2019-02-20T04:10:25.592Z,11.78
2019-02-20T04:12:52.148Z,12.70
2019-02-20T04:15:18.800Z,13.03
2019-02-20T04:17:45.371Z,11.25
2019-02-20T04:20:11.872Z,13.60
2019-02-20T04:22:38.350Z,12.68
2019-02-20T04:25:05.002Z,11.90
2019-02-20T04:27:31.560Z,12.60
2019-02-20T04:29:58.103Z,12.33
2019-02-20T04:32:24.588Z,11.20
2019-02-20T04:34:51.130Z,14.43
2019-02-20T04:37:17.608Z,15.72
2019-02-20T04:39:44.149Z,12.25
2019-02-20T04:42:10.788Z,13.88
2019-02-20T04:44:37.506Z,11.60
2019-02-20T04:47:04.089Z,12.53
2019-02-20T04:49:30.766Z,12.95
2019-02-20T04:51:57.438Z,12.45
2019-02-20T04:54:24.169Z,16.10
2019-02-20T04:56:50.670Z,15.32
2019-02-20T04:59:17.228Z,13.35
2019-02-20T05:01:43.822Z,13.43
2019-02-20T05:04:10.339Z,14.33
2019-02-20T05:06:36.929Z,14.98
2019-02-20T05:09:03.447Z,15.28
2019-02-20T05:11:30.033Z,15.85
2019-02-20T05:13:56.621Z,15.70
2019-02-20T05:16:23.077Z,15.18
2019-02-20T05:18:49.666Z,14.13
2019-02-20T05:21:16.105Z,14.40
2019-02-20T05:23:42.967Z,12.88
2019-02-20T05:26:09.637Z,12.35
2019-02-20T05:28:36.212Z,14.98
2019-02-20T05:31:02.832Z,13.98
2019-02-20T05:33:29.470Z,13.98
2019-02-20T05:35:56.012Z,13.80
2019-02-20T05:38:22.472Z,14.28
2019-02-20T05:40:49.060Z,13.15
2019-02-20T05:43:15.560Z,13.53
2019-02-20T05:45:42.138Z,14.95
2019-02-20T05:48:08.722Z,13.93
2019-02-20T05:50:35.387Z,15.10
2019-02-20T05:53:02.008Z,13.03
2019-02-20T05:55:28.665Z,14.80
2019-02-20T05:57:55.169Z,13.53
2019-02-20T06:00:21.679Z,13.83
2019-02-20T06:02:48.191Z,14.10
2019-02-20T06:05:14.694Z,12.70
2019-02-20T06:07:41.149Z,13.45
2019-02-20T06:10:07.766Z,13.90
2019-02-20T06:12:35.314Z,15.65
2019-02-20T06:15:01.991Z,14.75
2019-02-20T06:17:28.458Z,16.17
2019-02-20T06:19:55.023Z,17.90
2019-02-20T06:22:21.437Z,16.77
2019-02-20T06:24:48.012Z,17.85
2019-02-20T06:27:14.455Z,21.48
2019-02-20T06:29:41.045Z,21.50
2019-02-20T06:32:07.636Z,20.30
2019-02-20T06:34:34.251Z,22.77
2019-02-20T06:37:00.825Z,23.75
2019-02-20T06:39:27.382Z,23.32
2019-02-20T06:41:53.832Z,20.68
2019-02-20T06:44:20.673Z,24.52
2019-02-20T06:46:47.181Z,26.37
2019-02-20T06:49:13.691Z,26.17
2019-02-20T06:51:40.526Z,22.55
2019-02-20T06:54:07.313Z,22.93
2019-02-20T06:56:34.071Z,20.65
2019-02-20T06:59:02.687Z,22.15
2019-02-20T07:01:29.696Z,19.73
2019-02-20T07:03:56.611Z,17.55
2019-02-20T07:06:23.570Z,15.30
2019-02-20T07:08:50.364Z,18.40
2019-02-20T07:11:17.293Z,15.95
2019-02-20T07:13:43.965Z,16.97
2019-02-20T07:16:11.091Z,15.48
2019-02-20T07:18:37.851Z,14.83
2019-02-20T07:23:37.258Z,13.13
2019-02-20T07:26:04.317Z,16.37
2019-02-20T07:28:30.893Z,14.85
2019-02-20T07:30:57.752Z,16.35
2019-02-20T07:33:24.673Z,15.85
2019-02-20T07:35:51.473Z,15.75
2019-02-20T07:38:17.923Z,16.23
2019-02-20T07:40:44.648Z,16.55
2019-02-20T07:43:11.427Z,15.85
2019-02-20T07:45:38.426Z,17.77
2019-02-20T07:48:05.182Z,16.60
2019-02-20T07:50:32.123Z,16.93
2019-02-20T07:52:58.827Z,17.70
2019-02-20T07:55:25.539Z,15.00
2019-02-20T07:57:51.995Z,15.45
2019-02-20T08:00:19.034Z,13.98
2019-02-20T08:02:45.965Z,13.43
2019-02-20T08:05:15.790Z,12.35
2019-02-20T08:07:42.453Z,12.10
2019-02-20T08:10:09.309Z,11.97
2019-02-20T08:12:35.991Z,12.13
2019-02-20T08:15:02.620Z,12.25
2019-02-20T08:17:29.412Z,13.28
2019-02-20T08:19:55.970Z,14.87
2019-02-20T08:22:22.937Z,15.95
2019-02-20T08:24:49.461Z,12.58
2019-02-20T08:27:17.245Z,12.50
2019-02-20T08:29:43.934Z,13.50
2019-02-20T08:32:10.702Z,12.45
2019-02-20T08:34:37.304Z,12.25
2019-02-20T08:37:03.972Z,12.05
2019-02-20T08:39:30.739Z,12.98
2019-02-20T08:41:57.399Z,12.20
2019-02-20T08:44:24.067Z,11.95
2019-02-20T08:46:50.746Z,12.50
2019-02-20T08:49:23.506Z,12.88
2019-02-20T08:51:50.624Z,13.68
2019-02-20T08:54:17.385Z,12.93
2019-02-20T08:56:44.266Z,11.03
2019-02-20T08:59:11.026Z,10.33
2019-02-20T09:01:38.096Z,10.90
2019-02-20T09:04:06.757Z,9.77
2019-02-20T09:06:33.656Z,9.60
2019-02-20T09:09:00.516Z,10.67
2019-02-20T09:11:27.377Z,10.60
2019-02-20T09:13:54.043Z,11.30
2019-02-20T09:16:20.706Z,9.83
2019-02-20T09:18:47.266Z,9.43
2019-02-20T09:21:14.084Z,10.40
2019-02-20T09:23:41.949Z,9.13
2019-02-20T09:26:08.561Z,10.60
2019-02-20T09:28:35.143Z,9.48
2019-02-20T09:31:01.860Z,8.55
2019-02-20T09:33:28.855Z,10.03
2019-02-20T09:35:55.478Z,9.28
2019-02-20T09:38:22.059Z,9.50
2019-02-20T09:40:48.910Z,8.78
2019-02-20T09:43:15.500Z,9.40
2019-02-20T09:45:44.454Z,9.98
2019-02-20T09:48:10.959Z,8.65
2019-02-20T09:50:37.851Z,9.68
2019-02-20T09:53:04.396Z,8.85
2019-02-20T09:55:31.371Z,9.10
2019-02-20T09:57:58.522Z,7.75
2019-02-20T10:00:25.199Z,8.87
2019-02-20T10:02:51.855Z,8.60
2019-02-20T10:05:18.476Z,8.53
2019-02-20T10:07:45.260Z,8.03
2019-02-20T10:10:12.023Z,8.08
2019-02-20T10:12:38.708Z,8.63
2019-02-20T10:15:05.323Z,8.43
2019-02-20T10:17:54.900Z,7.97
2019-02-20T10:20:00.412Z,7.95
2019-02-20T10:22:26.976Z,8.25
2019-02-20T10:24:53.519Z,7.50
2019-02-20T10:27:20.197Z,7.42
2019-02-20T10:29:46.917Z,8.73
2019-02-20T10:32:13.554Z,10.13
2019-02-20T10:34:40.241Z,8.48
2019-02-20T10:37:06.914Z,8.30
2019-02-20T10:39:33.808Z,8.15
2019-02-20T10:42:00.582Z,7.53
2019-02-20T10:44:27.218Z,6.62
2019-02-20T10:46:53.814Z,7.78
2019-02-20T10:49:20.368Z,6.85
2019-02-20T10:51:47.102Z,5.87
2019-02-20T10:54:13.935Z,6.40
2019-02-20T10:56:40.783Z,6.30
2019-02-20T10:59:07.401Z,6.58
2019-02-20T11:01:34.151Z,6.65
2019-02-20T11:04:00.922Z,5.47
2019-02-20T11:06:27.589Z,5.72
2019-02-20T11:08:54.109Z,5.83
2019-02-20T11:11:20.898Z,6.10
2019-02-20T11:13:47.557Z,6.45
2019-02-20T11:16:14.232Z,6.28
2019-02-20T11:18:43.644Z,6.08
2019-02-20T11:21:13.430Z,5.55
2019-02-20T11:23:42.116Z,5.75
2019-02-20T11:26:08.621Z,5.70
2019-02-20T11:28:35.258Z,5.95
2019-02-20T11:31:01.847Z,4.95
2019-02-20T11:33:28.503Z,6.37
2019-02-20T11:35:55.184Z,6.15
2019-02-20T11:38:21.943Z,5.62
2019-02-20T11:40:48.704Z,6.95
2019-02-20T11:43:15.656Z,7.08
2019-02-20T11:45:42.443Z,6.45
2019-02-20T11:48:09.608Z,6.87
2019-02-20T11:50:36.358Z,6.87
2019-02-20T11:53:03.132Z,7.22
2019-02-20T11:55:29.790Z,9.00
2019-02-20T11:58:00.721Z,8.18
2019-02-20T12:00:24.827Z,11.05
2019-02-20T12:02:51.597Z,10.15
2019-02-20T12:05:18.688Z,9.65
2019-02-20T12:07:45.649Z,10.00
2019-02-20T12:10:12.852Z,9.73
2019-02-20T12:12:39.994Z,8.25
2019-02-20T12:15:06.678Z,9.00
2019-02-20T12:17:33.405Z,8.73
2019-02-20T12:19:59.915Z,9.88
2019-02-20T12:22:26.635Z,8.10
2019-02-20T12:24:54.834Z,8.20
2019-02-20T12:27:21.860Z,8.10
2019-02-20T12:29:48.355Z,8.65
2019-02-20T12:32:15.335Z,7.97
2019-02-20T12:34:41.796Z,6.75
2019-02-20T12:37:08.531Z,7.05
2019-02-20T12:39:35.190Z,6.08
2019-02-20T12:42:01.977Z,6.70
2019-02-20T12:44:28.516Z,6.72
2019-02-20T12:46:55.247Z,6.70
2019-02-20T12:49:21.944Z,6.97
2019-02-20T12:51:48.603Z,7.17
2019-02-20T12:54:15.307Z,6.72
2019-02-20T12:56:44.036Z,7.47
2019-02-20T12:59:10.627Z,5.90
2019-02-20T13:01:37.297Z,6.22
2019-02-20T13:04:04.052Z,8.68
2019-02-20T13:06:30.614Z,9.98
2019-02-20T13:08:57.475Z,9.80
2019-02-20T13:11:24.114Z,10.40
2019-02-20T13:13:50.894Z,9.30
2019-02-20T13:16:17.554Z,9.73
2019-02-20T13:18:44.415Z,10.03
2019-02-20T13:21:11.117Z,9.45
2019-02-20T13:23:39.775Z,10.18
2019-02-20T13:26:06.439Z,9.33
2019-02-20T13:28:33.378Z,9.80
2019-02-20T13:31:00.115Z,9.23
2019-02-20T13:33:27.038Z,9.20
2019-02-20T13:35:53.698Z,10.45
2019-02-20T13:38:20.587Z,10.18
2019-02-20T13:40:47.319Z,8.23
2019-02-20T13:43:14.198Z,8.85
2019-02-20T13:45:44.170Z,8.73
2019-02-20T13:48:11.084Z,8.15
2019-02-20T13:50:37.766Z,8.73
2019-02-20T13:53:04.404Z,10.25
2019-02-20T13:55:34.424Z,10.30
2019-02-20T13:57:59.471Z,9.13
2019-02-20T14:00:26.099Z,7.72
2019-02-20T14:02:53.006Z,9.70
2019-02-20T14:05:19.860Z,9.05
2019-02-20T14:07:46.957Z,8.95
2019-02-20T14:10:13.518Z,7.37
2019-02-20T14:12:40.152Z,7.95
2019-02-20T14:15:06.831Z,8.83
2019-02-20T14:17:33.683Z,9.53
2019-02-20T14:20:00.317Z,8.88
2019-02-20T14:22:27.086Z,10.58
2019-02-20T14:24:54.266Z,8.78
2019-02-20T14:27:20.932Z,8.38
2019-02-20T14:29:50.715Z,8.75
2019-02-20T14:32:17.324Z,10.10
2019-02-20T14:34:45.498Z,9.55
2019-02-20T14:37:12.251Z,9.93
2019-02-20T14:39:39.044Z,9.00
2019-02-20T14:42:05.674Z,8.80
2019-02-20T14:44:32.972Z,8.13
2019-02-20T14:46:59.631Z,8.35
2019-02-20T14:49:26.299Z,7.95
2019-02-20T14:51:53.052Z,8.18
2019-02-20T14:54:19.815Z,8.98
2019-02-20T14:56:46.482Z,9.23
2019-02-20T14:59:13.176Z,9.55
2019-02-20T15:01:39.806Z,8.75
2019-02-20T15:04:06.919Z,9.25
2019-02-20T15:06:33.624Z,9.28
2019-02-20T15:09:00.405Z,8.88
2019-02-20T15:11:27.062Z,8.08
2019-02-20T15:13:55.435Z,8.23
2019-02-20T15:16:22.061Z,7.65
2019-02-20T15:18:48.667Z,8.20
2019-02-20T15:21:15.343Z,7.75
2019-02-20T15:23:42.262Z,7.53
2019-02-20T15:26:09.062Z,6.78
2019-02-20T15:28:35.821Z,7.40
2019-02-20T15:31:02.461Z,7.10
2019-02-20T15:33:29.122Z,6.33
2019-02-20T15:35:56.041Z,7.45
2019-02-20T15:38:22.844Z,7.53
2019-02-20T15:40:49.629Z,8.40
2019-02-20T15:43:16.726Z,8.38
2019-02-20T15:45:43.365Z,7.78
2019-02-20T15:48:10.003Z,7.78
2019-02-20T15:50:36.788Z,7.92
2019-02-20T15:53:03.470Z,7.30
2019-02-20T15:55:30.040Z,7.03
2019-02-20T15:57:56.871Z,8.35
2019-02-20T16:00:23.884Z,7.90
2019-02-20T16:02:51.488Z,7.60
2019-02-20T16:05:18.231Z,8.93
2019-02-20T16:07:44.900Z,8.78
2019-02-20T16:10:11.652Z,7.92
2019-02-20T16:12:38.248Z,8.70
2019-02-20T16:15:05.035Z,8.10
2019-02-20T16:17:31.935Z,7.55
2019-02-20T16:19:58.855Z,8.03
2019-02-20T16:22:25.624Z,6.92
2019-02-20T16:24:52.584Z,7.75
2019-02-20T16:27:19.258Z,9.00
2019-02-20T16:29:46.174Z,7.95
2019-02-20T16:32:12.659Z,7.50
2019-02-20T16:34:39.323Z,7.58
2019-02-20T16:37:06.921Z,8.70
2019-02-20T16:39:33.486Z,8.85
2019-02-20T16:42:00.127Z,7.78
2019-02-20T16:44:27.067Z,8.65
2019-02-20T16:46:53.568Z,9.70
2019-02-20T16:49:20.126Z,10.15
2019-02-20T16:51:46.607Z,9.10
2019-02-20T16:54:13.159Z,10.10
2019-02-20T16:56:39.559Z,18.80
2019-02-20T16:59:05.993Z,17.75
2019-02-20T17:01:32.528Z,13.80
2019-02-20T17:03:59.547Z,9.95
2019-02-20T17:06:26.046Z,8.83
2019-02-20T17:08:52.797Z,9.23
2019-02-20T17:11:19.375Z,9.70
2019-02-20T17:13:47.331Z,10.35
2019-02-20T17:16:13.901Z,8.30
2019-02-20T17:18:40.441Z,9.33
2019-02-20T17:21:06.927Z,9.80
2019-02-20T17:23:34.046Z,8.60
2019-02-20T17:26:00.544Z,8.23
2019-02-20T17:28:27.112Z,8.70
2019-02-20T17:30:53.631Z,9.38
2019-02-20T17:33:20.215Z,8.15
2019-02-20T17:35:46.871Z,7.72
2019-02-20T17:38:13.694Z,8.40
2019-02-20T17:40:40.347Z,7.75
2019-02-20T17:43:07.554Z,7.80
2019-02-20T17:45:35.044Z,9.05
2019-02-20T17:48:01.929Z,8.80
2019-02-20T17:50:28.724Z,8.63
2019-02-20T17:52:55.525Z,9.58
2019-02-20T17:55:22.278Z,8.38
2019-02-20T17:57:48.951Z,10.38
2019-02-20T18:00:16.021Z,9.45
2019-02-20T18:02:42.584Z,9.20
2019-02-20T18:05:09.760Z,11.97
2019-02-20T18:07:37.638Z,11.43
2019-02-20T18:10:04.668Z,12.03
2019-02-20T18:12:31.156Z,12.28
2019-02-20T18:14:57.828Z,12.23
2019-02-20T18:17:24.341Z,12.33
2019-02-20T18:19:51.422Z,11.73
2019-02-20T18:22:18.282Z,11.78
2019-02-20T18:24:44.882Z,11.30
2019-02-20T18:27:11.400Z,12.47
2019-02-20T18:29:38.526Z,11.60
2019-02-20T18:32:05.151Z,11.48
2019-02-20T18:34:31.766Z,10.95
2019-02-20T18:36:58.451Z,12.05
2019-02-20T18:39:25.343Z,11.10
2019-02-20T18:41:51.985Z,10.88
2019-02-20T18:44:18.474Z,11.18
2019-02-20T18:46:45.035Z,11.38
2019-02-20T18:49:11.893Z,12.00
2019-02-20T18:51:38.493Z,11.45
2019-02-20T18:54:05.068Z,12.73
2019-02-20T18:56:33.948Z,12.05
2019-02-20T18:59:00.217Z,11.73
2019-02-20T19:01:26.950Z,13.48
2019-02-20T19:03:53.763Z,13.20
2019-02-20T19:06:20.655Z,12.37
2019-02-20T19:08:47.345Z,13.13
2019-02-20T19:11:14.220Z,13.35
2019-02-20T19:13:40.846Z,12.90
2019-02-20T19:16:07.907Z,13.20
2019-02-20T19:18:34.534Z,13.55
2019-02-20T19:21:01.292Z,12.73
2019-02-20T19:23:28.001Z,12.88
2019-02-20T19:25:54.878Z,13.85
2019-02-20T19:28:21.545Z,14.47
2019-02-20T19:30:48.444Z,14.90
2019-02-20T19:33:15.043Z,15.18
2019-02-20T19:35:41.801Z,17.23
2019-02-20T19:38:09.517Z,12.75
2019-02-20T19:40:36.542Z,12.88
2019-02-20T19:43:03.013Z,11.80
2019-02-20T19:45:29.891Z,11.60
2019-02-20T19:47:56.655Z,11.55
2019-02-20T19:50:23.602Z,10.50
2019-02-20T19:52:50.580Z,10.53
2019-02-20T19:55:17.405Z,10.35
2019-02-20T19:57:44.001Z,10.88
2019-02-20T20:00:10.823Z,12.70
2019-02-20T20:02:37.419Z,11.48
2019-02-20T20:05:04.264Z,11.38
2019-02-20T20:07:31.203Z,12.10
2019-02-20T20:09:58.074Z,12.65
2019-02-20T20:12:25.003Z,11.70
2019-02-20T20:14:51.494Z,12.25
2019-02-20T20:17:18.238Z,11.30
2019-02-20T20:19:44.998Z,11.30
2019-02-20T20:22:11.951Z,10.35
2019-02-20T20:24:38.758Z,11.53
2019-02-20T20:27:05.826Z,13.03
2019-02-20T20:29:32.289Z,13.48
2019-02-20T20:31:59.078Z,26.23
2019-02-20T20:34:25.780Z,136.40
2019-02-20T20:36:52.530Z,96.80
2019-02-20T20:39:19.350Z,69.90
2019-02-20T20:41:46.089Z,16.07
2019-02-20T20:44:12.769Z,12.13
2019-02-20T20:46:39.609Z,12.45
2019-02-20T20:49:06.176Z,11.73
2019-02-20T20:51:32.993Z,12.65
2019-02-20T20:53:59.702Z,12.98
2019-02-20T20:56:26.357Z,12.55
2019-02-20T20:58:53.017Z,12.18
2019-02-20T21:01:19.825Z,12.18
2019-02-20T21:03:46.449Z,12.50
2019-02-20T21:06:13.240Z,12.60
2019-02-20T21:08:39.895Z,13.95
2019-02-20T21:11:06.837Z,13.25
2019-02-20T21:13:34.853Z,13.62
2019-02-20T21:16:01.715Z,14.85
2019-02-20T21:18:28.505Z,15.10
2019-02-20T21:20:55.251Z,13.53
2019-02-20T21:23:21.922Z,16.85
2019-02-20T21:25:48.841Z,15.95
2019-02-20T21:28:15.440Z,13.98
2019-02-20T21:30:42.315Z,15.18
2019-02-20T21:33:08.991Z,14.25
2019-02-20T21:35:36.040Z,15.72
2019-02-20T21:38:02.683Z,14.63
2019-02-20T21:40:29.328Z,14.28
2019-02-20T21:42:55.981Z,14.35
2019-02-20T21:45:25.137Z,14.25
2019-02-20T21:47:51.491Z,12.93
2019-02-20T21:50:18.142Z,13.20
2019-02-20T21:52:44.877Z,12.98
2019-02-20T21:55:11.868Z,12.10
2019-02-20T21:57:39.292Z,11.28
2019-02-20T22:00:06.261Z,10.70
2019-02-20T22:02:32.937Z,10.90
2019-02-20T22:04:59.441Z,10.40
2019-02-20T22:07:28.509Z,10.53
2019-02-20T22:09:58.178Z,10.75
2019-02-20T22:12:23.711Z,12.10
2019-02-20T22:14:50.410Z,11.30
2019-02-20T22:17:17.201Z,13.45
2019-02-20T22:19:43.998Z,11.70
2019-02-20T22:22:10.817Z,12.68
2019-02-20T22:24:39.633Z,12.20
2019-02-20T22:27:06.139Z,10.23
2019-02-20T22:29:33.110Z,10.53
2019-02-20T22:32:00.735Z,9.15
2019-02-20T22:34:27.634Z,11.73
2019-02-20T22:36:54.595Z,13.00
2019-02-20T22:39:21.260Z,10.63
2019-02-20T22:41:48.342Z,11.55
2019-02-20T22:44:15.163Z,13.25
2019-02-20T22:46:41.920Z,15.08
2019-02-20T22:49:08.828Z,12.88
2019-02-20T22:51:35.807Z,12.18
2019-02-20T22:54:02.763Z,10.65
2019-02-20T22:56:31.083Z,9.80
2019-02-20T22:58:57.723Z,10.63
2019-02-20T23:01:24.690Z,11.18
2019-02-20T23:03:51.311Z,11.55
2019-02-20T23:06:18.193Z,10.98
2019-02-20T23:08:48.225Z,12.43
2019-02-20T23:11:15.180Z,11.15
2019-02-20T23:13:41.987Z,11.33
2019-02-20T23:16:09.060Z,9.83
2019-02-20T23:18:35.671Z,11.15
2019-02-20T23:21:02.425Z,11.48
2019-02-20T23:23:29.132Z,9.15
2019-02-20T23:25:56.099Z,9.20
2019-02-20T23:28:23.066Z,8.95
2019-02-20T23:30:49.928Z,10.00
2019-02-20T23:33:16.965Z,10.35
2019-02-20T23:35:43.565Z,10.00
2019-02-20T23:38:10.314Z,9.80
2019-02-20T23:40:37.184Z,9.58
2019-02-20T23:43:04.048Z,9.68
2019-02-20T23:45:30.727Z,9.55
2019-02-20T23:48:07.093Z,10.75
2019-02-20T23:50:33.745Z,11.18
2019-02-20T23:53:00.510Z,10.53
2019-02-20T23:55:27.064Z,12.30
2019-02-20T23:57:54.236Z,10.38
